Time;durP1;ratioP1;P1;durP2;ratioP2;P2;SDS_P1;SDS_P2;PMS_P1;PMS_P2;Temp;Humidity;BMP_temperature;BMP_pressure;BME280_temperature;BME280_humidity;BME280_pressure;Samples;Min_cycle;Max_cycle;Signal;HPM_P1;HPM_P2
2022/04/28 00:00:07;;;;;;;36.67;15.95;;;4.80;99.90;;;;;;4990740;28;20048;-62
2022/04/28 00:02:33;;;;;;;32.35;14.05;;;4.80;99.90;;;;;;4999881;28;20083;-62
2022/04/28 00:05:00;;;;;;;34.25;14.85;;;4.80;99.90;;;;;;5004408;28;20117;-62
2022/04/28 00:07:26;;;;;;;34.83;13.70;;;4.80;99.90;;;;;;4998605;28;20489;-61
2022/04/28 00:09:52;;;;;;;30.23;13.95;;;4.80;99.90;;;;;;5000024;28;20109;-61
2022/04/28 00:12:17;;;;;;;32.42;14.07;;;4.80;99.90;;;;;;4997463;28;20471;-62
2022/04/28 00:14:43;;;;;;;26.10;11.75;;;4.80;99.90;;;;;;5004754;28;20041;-61
2022/04/28 00:17:09;;;;;;;26.50;12.13;;;4.80;99.90;;;;;;4996257;28;20125;-61
2022/04/28 00:19:35;;;;;;;25.33;12.27;;;4.80;99.90;;;;;;5003403;28;20061;-62
2022/04/28 00:22:01;;;;;;;25.75;12.77;;;4.80;99.90;;;;;;5003007;28;20026;-61
2022/04/28 00:24:27;;;;;;;29.73;12.02;;;4.80;99.90;;;;;;4995706;28;20092;-62
2022/04/28 00:26:52;;;;;;;26.27;12.63;;;4.80;99.90;;;;;;4999636;28;20031;-61
2022/04/28 00:29:18;;;;;;;33.80;14.45;;;4.80;99.90;;;;;;4999239;28;20479;-61
2022/04/28 00:31:44;;;;;;;33.72;14.75;;;4.80;99.90;;;;;;5005151;28;20033;-61
2022/04/28 00:34:11;;;;;;;33.72;14.48;;;4.80;99.90;;;;;;4997122;28;20399;-61
2022/04/28 00:36:36;;;;;;;34.55;14.95;;;4.70;99.90;;;;;;4998485;28;20379;-62
2022/04/28 00:39:02;;;;;;;32.42;13.70;;;4.70;99.90;;;;;;4992249;28;20037;-61
2022/04/28 00:41:28;;;;;;;29.83;14.05;;;4.60;99.90;;;;;;5000752;28;20030;-61
2022/04/28 00:43:54;;;;;;;31.50;14.02;;;4.50;99.90;;;;;;4986414;28;20049;-61
2022/04/28 00:46:21;;;;;;;36.67;15.18;;;4.50;99.90;;;;;;4982160;28;20470;-61
2022/04/28 00:51:37;;;;;;;35.67;15.05;;;4.50;99.90;;;;;;4995280;28;20040;-61
2022/04/28 00:54:04;;;;;;;27.10;11.70;;;4.40;99.90;;;;;;4995719;28;20096;-61
2022/04/28 00:56:31;;;;;;;37.80;13.63;;;4.30;99.90;;;;;;5001132;28;20046;-61
2022/04/28 00:59:02;;;;;;;31.55;13.43;;;4.30;99.90;;;;;;4976191;28;20040;-61
2022/04/28 01:01:31;;;;;;;32.75;14.20;;;4.30;99.90;;;;;;4992580;28;20034;-61
2022/04/28 01:03:57;;;;;;;33.72;14.98;;;4.20;99.90;;;;;;4997573;28;20027;-61
2022/04/28 01:06:23;;;;;;;32.33;13.73;;;4.30;99.90;;;;;;4995450;28;20372;-61
2022/04/28 01:08:49;;;;;;;29.40;13.15;;;4.20;99.90;;;;;;4990219;28;20069;-61
2022/04/28 01:11:16;;;;;;;35.50;13.88;;;4.20;99.90;;;;;;4995657;28;20533;-61
2022/04/28 01:13:43;;;;;;;37.85;14.40;;;4.10;99.90;;;;;;4995791;28;20084;-61
2022/04/28 01:16:08;;;;;;;37.95;14.68;;;4.10;99.90;;;;;;5000523;28;20137;-61
2022/04/28 01:18:34;;;;;;;36.30;15.40;;;4.20;99.90;;;;;;5003151;28;20208;-61
2022/04/28 01:21:07;;;;;;;30.10;14.30;;;4.20;99.90;;;;;;5006759;28;20038;-61
2022/04/28 01:23:34;;;;;;;36.80;14.38;;;4.10;99.90;;;;;;5008088;28;20057;-61
2022/04/28 01:26:00;;;;;;;24.15;12.02;;;4.10;99.90;;;;;;5008491;28;20037;-61
2022/04/28 01:28:31;;;;;;;29.33;12.82;;;4.10;99.90;;;;;;4995615;28;20038;-61
2022/04/28 01:30:58;;;;;;;23.83;11.85;;;4.10;99.90;;;;;;5000889;28;20026;-61
2022/04/28 01:33:24;;;;;;;21.63;11.10;;;4.00;99.90;;;;;;4996357;28;20026;-61
2022/04/28 01:35:49;;;;;;;28.10;12.55;;;4.00;99.90;;;;;;5003107;28;20402;-61
2022/04/28 01:38:15;;;;;;;28.33;12.23;;;4.00;99.90;;;;;;4985048;28;20034;-61
2022/04/28 01:40:41;;;;;;;51.30;18.88;;;4.00;99.90;;;;;;4995448;28;20429;-61
2022/04/28 01:43:06;;;;;;;45.92;17.05;;;3.90;99.90;;;;;;5003320;28;20526;-61
2022/04/28 01:45:32;;;;;;;49.20;18.17;;;3.90;99.90;;;;;;4999578;28;20022;-61
2022/04/28 01:47:57;;;;;;;58.10;18.90;;;3.80;99.90;;;;;;5003717;28;20034;-61
2022/04/28 01:50:23;;;;;;;49.00;18.58;;;3.70;99.90;;;;;;4984012;28;20773;-61
2022/04/28 01:55:33;;;;;;;48.92;16.40;;;3.60;99.90;;;;;;5000698;28;20037;-61
2022/04/28 01:57:59;;;;;;;55.17;17.15;;;3.50;99.90;;;;;;4997366;28;20030;-61
2022/04/28 02:00:24;;;;;;;38.85;15.30;;;3.40;99.90;;;;;;5004349;28;20038;-61
2022/04/28 02:02:50;;;;;;;43.38;15.75;;;3.50;99.90;;;;;;4993729;28;20110;-62
2022/04/28 02:05:16;;;;;;;41.13;16.40;;;3.40;99.90;;;;;;4997053;28;20062;-61
2022/04/28 02:07:42;;;;;;;44.28;16.92;;;3.40;99.90;;;;;;4987911;28;20471;-61
2022/04/28 02:10:08;;;;;;;27.55;11.98;;;3.40;99.90;;;;;;5005973;28;20038;-61
2022/04/28 02:12:34;;;;;;;27.77;12.85;;;3.40;99.90;;;;;;5007869;28;20034;-61
2022/04/28 02:15:00;;;;;;;33.08;14.43;;;3.30;99.90;;;;;;5004831;28;20510;-61
2022/04/28 02:17:27;;;;;;;37.95;14.43;;;3.30;99.90;;;;;;5003530;28;20430;-61
2022/04/28 02:19:53;;;;;;;47.28;17.58;;;3.40;99.90;;;;;;4993889;28;20061;-61
2022/04/28 02:22:20;;;;;;;46.28;18.38;;;3.40;99.90;;;;;;5001746;28;20499;-61
2022/04/28 02:24:47;;;;;;;43.33;16.75;;;3.30;99.90;;;;;;5000356;28;20034;-61
2022/04/28 02:27:13;;;;;;;35.38;14.20;;;3.20;99.90;;;;;;4993195;28;20042;-61
2022/04/28 02:29:39;;;;;;;31.38;13.55;;;3.20;99.90;;;;;;4990419;28;20048;-61
2022/04/28 02:32:05;;;;;;;35.90;14.00;;;3.20;99.90;;;;;;5002318;28;20113;-61
2022/04/28 02:34:31;;;;;;;28.83;12.68;;;3.20;99.90;;;;;;5007435;28;20076;-61
2022/04/28 02:36:57;;;;;;;28.90;12.80;;;3.10;99.90;;;;;;5006771;28;20631;-61
2022/04/28 02:39:23;;;;;;;27.85;11.23;;;3.10;99.90;;;;;;5008498;28;20030;-61
2022/04/28 02:41:49;;;;;;;23.63;10.40;;;3.10;99.90;;;;;;4982028;28;20459;-61
2022/04/28 02:44:15;;;;;;;25.15;11.10;;;3.10;99.90;;;;;;4974619;28;20042;-61
2022/04/28 02:46:48;;;;;;;24.20;10.60;;;3.10;99.90;;;;;;5002833;28;20042;-61
2022/04/28 02:49:15;;;;;;;28.75;11.95;;;3.10;99.90;;;;;;4999288;28;20056;-61
2022/04/28 02:51:42;;;;;;;26.58;11.18;;;3.00;99.90;;;;;;4992342;28;20034;-61
2022/04/28 02:54:08;;;;;;;25.75;11.57;;;3.00;99.90;;;;;;5009674;28;20038;-61
2022/04/28 02:56:34;;;;;;;32.00;12.48;;;3.00;99.90;;;;;;5006107;28;20096;-61
2022/04/28 02:59:01;;;;;;;30.60;12.82;;;3.00;99.90;;;;;;5000294;28;20029;-61
2022/04/28 03:01:27;;;;;;;25.25;11.57;;;2.90;99.90;;;;;;5002914;28;20026;-61
2022/04/28 03:03:53;;;;;;;27.10;11.18;;;2.80;99.90;;;;;;4998727;28;20554;-61
2022/04/28 03:11:49;;;;;;;21.77;10.00;;;2.80;99.90;;;;;;5000246;28;20045;-61
2022/04/28 03:14:15;;;;;;;23.23;10.27;;;2.80;99.90;;;;;;4984466;28;20050;-61
2022/04/28 03:16:41;;;;;;;22.15;10.07;;;2.70;99.90;;;;;;4957707;28;20039;-61
2022/04/28 03:19:07;;;;;;;21.05;10.85;;;2.70;99.90;;;;;;4959623;28;20480;-61
2022/04/28 03:21:34;;;;;;;20.65;9.95;;;2.70;99.90;;;;;;4970579;28;20039;-61
2022/04/28 03:24:00;;;;;;;21.50;9.88;;;2.70;99.90;;;;;;4971387;28;20046;-61
2022/04/28 03:26:25;;;;;;;22.48;10.40;;;2.60;99.90;;;;;;4968624;28;20133;-61
2022/04/28 03:28:51;;;;;;;118.15;11.98;;;2.60;99.90;;;;;;4959807;28;20083;-62
2022/04/28 03:31:17;;;;;;;33.70;10.90;;;2.60;99.90;;;;;;4958639;28;20031;-61
2022/04/28 03:33:43;;;;;;;22.80;10.88;;;2.60;99.90;;;;;;4966264;28;20117;-61
2022/04/28 03:38:53;;;;;;;22.80;9.73;;;2.50;99.90;;;;;;4954094;28;20065;-61
2022/04/28 03:41:19;;;;;;;21.88;10.43;;;2.40;99.90;;;;;;4954667;28;20535;-61
2022/04/28 03:43:45;;;;;;;23.58;10.73;;;2.30;99.90;;;;;;4967303;28;20439;-61
2022/04/28 03:46:11;;;;;;;18.35;9.63;;;2.30;99.90;;;;;;4952645;28;20071;-61
2022/04/28 03:48:37;;;;;;;33.40;10.95;;;2.30;99.90;;;;;;4952267;28;20486;-61
2022/04/28 03:51:04;;;;;;;27.70;9.93;;;2.30;99.90;;;;;;4960183;28;20035;-61
2022/04/28 03:53:30;;;;;;;27.05;10.50;;;2.30;99.90;;;;;;4958362;28;20031;-61
2022/04/28 03:55:57;;;;;;;19.83;9.48;;;2.30;99.90;;;;;;4965174;28;20365;-62
2022/04/28 03:58:25;;;;;;;21.30;9.70;;;2.40;99.90;;;;;;4964843;28;20035;-61
2022/04/28 04:00:51;;;;;;;20.88;10.30;;;2.30;99.90;;;;;;4959224;28;20465;-61
2022/04/28 04:03:19;;;;;;;20.60;9.88;;;2.20;99.90;;;;;;4984348;28;20034;-63
2022/04/28 04:05:45;;;;;;;19.17;9.07;;;2.20;99.90;;;;;;4968075;28;20506;-61
2022/04/28 04:08:11;;;;;;;19.30;8.95;;;2.20;99.90;;;;;;4967122;28;20042;-61
2022/04/28 04:10:37;;;;;;;20.60;9.60;;;2.30;99.90;;;;;;4965255;28;20034;-61
2022/04/28 04:13:03;;;;;;;19.70;9.43;;;2.20;99.90;;;;;;4970846;28;20118;-61
2022/04/28 04:15:29;;;;;;;19.77;9.70;;;2.20;99.90;;;;;;4995722;28;20566;-61
2022/04/28 04:17:54;;;;;;;21.20;9.18;;;2.20;99.90;;;;;;5002738;28;20109;-61
2022/04/28 04:20:20;;;;;;;22.33;10.00;;;2.20;99.90;;;;;;5006100;28;20035;-61
2022/04/28 04:22:46;;;;;;;21.17;9.88;;;2.20;99.90;;;;;;5004820;28;20026;-61
2022/04/28 04:25:11;;;;;;;21.00;9.70;;;2.20;99.90;;;;;;5009283;28;20141;-61
2022/04/28 04:27:37;;;;;;;24.42;11.32;;;2.20;99.90;;;;;;4992249;28;20037;-61
2022/04/28 04:32:17;;;;;;;80.10;11.13;;;2.20;99.90;;;;;;4995444;28;20114;-61
2022/04/28 04:32:50;;;;;;;26.25;9.98;;;2.20;99.90;;;;;;4998388;28;20112;-62
2022/04/28 04:35:17;;;;;;;21.73;10.00;;;2.10;99.90;;;;;;5006214;28;20084;-61
2022/04/28 04:37:43;;;;;;;22.58;9.88;;;2.00;99.90;;;;;;5007877;28;20565;-61
2022/04/28 04:40:11;;;;;;;23.98;11.20;;;1.90;99.90;;;;;;5005289;28;20038;-61
2022/04/28 04:42:37;;;;;;;22.40;10.45;;;1.90;99.90;;;;;;5000995;28;20033;-61
2022/04/28 04:45:03;;;;;;;42.95;10.32;;;1.90;99.90;;;;;;5007336;28;20928;-61
2022/04/28 04:47:28;;;;;;;23.17;10.32;;;2.00;99.90;;;;;;5009294;28;20110;-61
2022/04/28 04:49:54;;;;;;;35.88;10.40;;;2.00;99.90;;;;;;5006085;28;20113;-61
2022/04/28 04:52:20;;;;;;;26.00;10.38;;;2.00;99.90;;;;;;5026693;28;20441;-61
2022/04/28 04:54:45;;;;;;;25.75;10.63;;;2.10;99.90;;;;;;5001306;28;20038;-61
2022/04/28 04:57:11;;;;;;;22.75;11.13;;;2.10;99.90;;;;;;5000005;28;20478;-61
2022/04/28 04:59:37;;;;;;;21.52;10.25;;;2.20;99.90;;;;;;4997727;28;20447;-61
2022/04/28 05:02:02;;;;;;;24.80;10.95;;;2.30;99.90;;;;;;4992060;28;20038;-61
2022/04/28 05:04:28;;;;;;;21.73;9.88;;;2.40;99.90;;;;;;4990235;28;20046;-61
2022/04/28 05:06:54;;;;;;;22.88;10.15;;;2.60;99.90;;;;;;5006527;28;20092;-61
2022/04/28 05:09:19;;;;;;;28.48;10.32;;;2.80;99.90;;;;;;5003286;28;20044;-61
2022/04/28 05:11:45;;;;;;;24.55;10.80;;;2.90;99.90;;;;;;4998855;28;20034;-61
2022/04/28 05:14:11;;;;;;;21.95;10.25;;;3.00;99.90;;;;;;4996348;28;20078;-61
2022/04/28 05:16:37;;;;;;;23.30;10.63;;;3.10;99.90;;;;;;4998899;28;20041;-61
2022/04/28 05:19:03;;;;;;;21.98;10.40;;;3.20;99.90;;;;;;5016110;28;20033;-61
2022/04/28 05:21:28;;;;;;;31.80;10.45;;;3.40;99.90;;;;;;5006476;28;20035;-61
2022/04/28 05:23:54;;;;;;;20.45;10.32;;;3.30;99.90;;;;;;5001913;28;20045;-61
2022/04/28 05:26:20;;;;;;;25.67;9.80;;;3.50;99.90;;;;;;4993078;28;20041;-61
2022/04/28 05:28:45;;;;;;;20.92;9.77;;;3.70;99.90;;;;;;5001875;28;20076;-61
2022/04/28 05:31:11;;;;;;;18.75;9.32;;;3.80;99.90;;;;;;4985911;28;20497;-60
2022/04/28 05:33:41;;;;;;;19.60;10.07;;;3.90;99.90;;;;;;4997756;28;20050;-60
2022/04/28 05:36:09;;;;;;;18.40;9.98;;;4.10;99.90;;;;;;5007343;28;20022;-61
2022/04/28 05:38:36;;;;;;;19.60;9.55;;;4.30;99.90;;;;;;5006099;28;20030;-61
2022/04/28 05:41:03;;;;;;;19.63;9.75;;;4.50;99.90;;;;;;5003569;28;20041;-61
2022/04/28 05:46:14;;;;;;;16.88;9.05;;;4.80;99.90;;;;;;5004818;28;20533;-64
2022/04/28 05:48:40;;;;;;;20.88;10.23;;;4.80;99.90;;;;;;4991159;28;20042;-61
2022/04/28 05:51:06;;;;;;;20.00;9.50;;;4.80;99.90;;;;;;4989120;28;20492;-62
2022/04/28 05:53:31;;;;;;;19.90;10.35;;;5.00;99.90;;;;;;5010303;28;20029;-61
2022/04/28 05:55:57;;;;;;;20.90;9.93;;;5.10;99.90;;;;;;5010334;28;20026;-77
2022/04/28 05:58:23;;;;;;;19.75;9.98;;;5.20;99.90;;;;;;4999382;28;20393;-62
2022/04/28 06:00:49;;;;;;;18.20;9.60;;;5.40;99.90;;;;;;5004514;28;20032;-62
2022/04/28 06:03:15;;;;;;;18.65;9.85;;;5.50;99.90;;;;;;5007867;28;20029;-62
2022/04/28 06:05:40;;;;;;;18.20;8.85;;;5.70;99.90;;;;;;5008563;28;20068;-65
2022/04/28 06:08:06;;;;;;;21.38;9.77;;;5.80;99.90;;;;;;5004919;28;20048;-61
2022/04/28 06:10:32;;;;;;;18.85;9.70;;;6.00;99.90;;;;;;5025963;28;20455;-62
2022/04/28 06:12:57;;;;;;;19.27;10.50;;;6.10;99.90;;;;;;5012197;28;20029;-63
2022/04/28 06:15:23;;;;;;;23.80;10.70;;;6.30;99.90;;;;;;5008680;28;20042;-61
2022/04/28 06:17:49;;;;;;;20.45;10.60;;;6.40;99.90;;;;;;5010552;28;20046;-62
2022/04/28 06:20:15;;;;;;;22.95;10.57;;;6.50;99.90;;;;;;4999411;28;20035;-61
2022/04/28 06:22:41;;;;;;;19.20;10.32;;;6.70;99.90;;;;;;5010245;28;20034;-61
2022/04/28 06:25:07;;;;;;;21.67;10.23;;;6.80;99.90;;;;;;4993732;28;20038;-61
2022/04/28 06:27:34;;;;;;;21.85;10.73;;;6.90;99.90;;;;;;5010535;28;20079;-61
2022/04/28 06:30:00;;;;;;;21.05;10.77;;;7.00;99.90;;;;;;4997826;28;21370;-61
2022/04/28 06:32:26;;;;;;;23.95;11.48;;;7.20;99.90;;;;;;4989202;28;20034;-62
2022/04/28 06:34:51;;;;;;;22.23;11.30;;;7.40;99.90;;;;;;5005867;28;20045;-61
2022/04/28 06:37:17;;;;;;;24.65;11.40;;;7.60;99.90;;;;;;4999377;28;20546;-61
2022/04/28 06:39:43;;;;;;;19.88;10.95;;;7.80;99.90;;;;;;5011946;28;20034;-61
2022/04/28 06:42:09;;;;;;;20.02;11.07;;;8.00;99.90;;;;;;5001512;28;20060;-62
2022/04/28 06:44:36;;;;;;;20.55;11.20;;;8.20;99.90;;;;;;5009125;28;20270;-61
2022/04/28 06:47:03;;;;;;;24.88;11.95;;;8.40;99.90;;;;;;5013289;28;20125;-61
2022/04/28 06:49:29;;;;;;;21.90;11.65;;;8.60;99.90;;;;;;5011266;28;20151;-62
2022/04/28 06:51:54;;;;;;;28.17;11.90;;;8.80;99.90;;;;;;4981498;28;20029;-61
2022/04/28 06:54:20;;;;;;;26.17;12.70;;;9.00;99.90;;;;;;5027457;28;20038;-62
2022/04/28 06:56:47;;;;;;;24.27;12.45;;;9.30;99.90;;;;;;5010547;28;20033;-62
2022/04/28 06:59:13;;;;;;;23.92;12.43;;;9.60;99.90;;;;;;5007484;28;20109;-63
2022/04/28 07:01:39;;;;;;;23.48;12.18;;;9.90;99.90;;;;;;5010730;28;20045;-63
2022/04/28 07:04:05;;;;;;;23.40;12.25;;;10.10;99.90;;;;;;5010709;28;20026;-63
2022/04/28 07:06:30;;;;;;;20.17;10.75;;;10.40;99.90;;;;;;5006242;28;20037;-63
2022/04/28 07:08:56;;;;;;;21.80;11.32;;;10.60;99.90;;;;;;5004344;28;20034;-65
2022/04/28 07:11:24;;;;;;;18.80;9.70;;;10.90;99.90;;;;;;4990698;28;20027;-63
2022/04/28 07:13:50;;;;;;;18.35;9.95;;;11.20;99.90;;;;;;5009017;28;20030;-63
2022/04/28 07:16:15;;;;;;;17.05;9.57;;;11.50;99.90;;;;;;4980963;28;20062;-62
2022/04/28 07:18:41;;;;;;;19.70;9.85;;;11.70;99.90;;;;;;4979307;28;20030;-61
2022/04/28 07:21:07;;;;;;;18.48;9.95;;;11.90;99.90;;;;;;4990739;28;20027;-62
2022/04/28 07:23:32;;;;;;;18.83;10.25;;;12.20;99.90;;;;;;4991426;28;20030;-61
2022/04/28 07:25:58;;;;;;;18.15;9.73;;;12.20;99.90;;;;;;4984677;28;20037;-61
2022/04/28 07:28:24;;;;;;;15.02;9.25;;;12.30;99.90;;;;;;4989739;28;20117;-62
2022/04/28 07:30:50;;;;;;;18.75;9.93;;;12.60;99.90;;;;;;4983663;28;20054;-62
2022/04/28 07:33:16;;;;;;;20.65;9.15;;;12.60;99.90;;;;;;4975672;28;20149;-62
2022/04/28 07:35:42;;;;;;;17.73;9.50;;;12.80;99.90;;;;;;4981444;28;20038;-62
2022/04/28 07:38:08;;;;;;;20.45;8.90;;;13.00;99.90;;;;;;4986479;28;20026;-62
2022/04/28 07:40:35;;;;;;;17.55;9.77;;;13.10;99.90;;;;;;4992943;28;20038;-62
2022/04/28 07:43:01;;;;;;;19.10;9.90;;;13.30;99.90;;;;;;4977841;28;20043;-61
2022/04/28 07:45:27;;;;;;;18.92;9.75;;;13.40;99.90;;;;;;4987729;28;20050;-62
2022/04/28 07:47:54;;;;;;;15.15;8.63;;;13.60;99.90;;;;;;4989166;28;20027;-62
2022/04/28 07:50:20;;;;;;;15.57;9.00;;;13.70;99.90;;;;;;4986768;28;20220;-61
2022/04/28 07:52:46;;;;;;;16.83;8.57;;;13.80;99.90;;;;;;4975563;28;20030;-61
2022/04/28 07:55:12;;;;;;;16.30;9.40;;;13.80;99.90;;;;;;4988060;28;20034;-62
2022/04/28 07:57:38;;;;;;;20.00;8.43;;;13.90;99.90;;;;;;4979847;28;20041;-62
2022/04/28 08:00:05;;;;;;;15.95;8.05;;;14.00;99.90;;;;;;4985377;28;20066;-61
2022/04/28 08:02:32;;;;;;;15.13;8.70;;;14.10;99.90;;;;;;4987143;28;20038;-62
2022/04/28 08:04:58;;;;;;;14.80;8.60;;;14.30;99.90;;;;;;4987037;28;20117;-61
2022/04/28 08:07:24;;;;;;;15.80;8.32;;;14.60;99.90;;;;;;4984976;28;20026;-61
2022/04/28 08:09:50;;;;;;;15.80;8.07;;;14.80;99.90;;;;;;4975547;28;20041;-62
2022/04/28 08:12:16;;;;;;;14.70;7.65;;;14.90;99.90;;;;;;4984530;28;20250;-62
2022/04/28 08:14:41;;;;;;;14.05;7.43;;;14.90;99.90;;;;;;5002072;28;20514;-61
2022/04/28 08:17:07;;;;;;;11.73;6.72;;;14.80;99.90;;;;;;4992136;28;20136;-62
2022/04/28 08:19:33;;;;;;;13.13;7.10;;;14.90;99.90;;;;;;5001199;28;20034;-61
2022/04/28 08:21:59;;;;;;;11.63;6.95;;;15.20;99.90;;;;;;5008444;28;20034;-62
2022/04/28 08:24:25;;;;;;;13.38;6.90;;;15.30;99.90;;;;;;5004113;28;20038;-62
2022/04/28 08:26:54;;;;;;;11.50;6.40;;;15.20;99.90;;;;;;4976927;28;20037;-62
2022/04/28 08:29:21;;;;;;;10.30;5.22;;;15.30;99.90;;;;;;5007790;28;20517;-62
2022/04/28 08:31:47;;;;;;;10.75;6.15;;;15.50;99.90;;;;;;5009809;28;20026;-62
2022/04/28 08:34:14;;;;;;;10.57;5.57;;;15.70;99.90;;;;;;5007930;28;20416;-62
2022/04/28 08:36:41;;;;;;;9.75;5.35;;;15.70;99.90;;;;;;5009702;28;20490;-62
2022/04/28 08:39:07;;;;;;;10.93;5.25;;;15.70;99.90;;;;;;5006752;28;20038;-62
2022/04/28 08:41:35;;;;;;;13.00;5.88;;;15.90;99.20;;;;;;4991997;28;20180;-61
2022/04/28 08:44:03;;;;;;;11.98;5.97;;;15.90;96.80;;;;;;5024323;28;20052;-61
2022/04/28 08:49:15;;;;;;;14.82;6.35;;;15.60;96.20;;;;;;5008498;28;20084;-62
2022/04/28 08:51:42;;;;;;;10.88;5.25;;;15.60;94.70;;;;;;4995716;28;20034;-62
2022/04/28 08:54:13;;;;;;;11.10;6.15;;;15.50;93.70;;;;;;4988712;28;20058;-61
2022/04/28 08:56:39;;;;;;;10.40;5.35;;;15.10;92.90;;;;;;5009921;28;20057;-61
2022/04/28 08:59:06;;;;;;;8.10;5.18;;;15.00;90.70;;;;;;4997766;28;20121;-61
2022/04/28 09:01:32;;;;;;;10.60;4.68;;;15.00;92.10;;;;;;5003614;28;20030;-61
2022/04/28 09:04:05;;;;;;;8.27;4.43;;;15.50;93.70;;;;;;5008331;28;20655;-60
2022/04/28 09:06:35;;;;;;;9.60;4.82;;;15.50;90.30;;;;;;5003457;28;20034;-61
2022/04/28 09:09:20;;;;;;;7.72;4.25;;;15.60;83.90;;;;;;5008694;28;20423;-61
2022/04/28 09:11:47;;;;;;;8.43;4.63;;;15.30;86.80;;;;;;4992696;28;20544;-63
2022/04/28 09:14:20;;;;;;;8.20;4.40;;;15.60;90.10;;;;;;4989843;28;20384;-61
2022/04/28 09:17:04;;;;;;;8.40;4.47;;;15.90;85.10;;;;;;4989064;28;20136;-61
2022/04/28 09:19:33;;;;;;;7.32;4.10;;;15.70;77.50;;;;;;4998390;28;20030;-61
2022/04/28 09:22:08;;;;;;;7.07;4.40;;;15.60;78.30;;;;;;5008741;28;20542;-61
2022/04/28 09:24:34;;;;;;;7.72;4.80;;;15.30;80.40;;;;;;5009193;28;20088;-61
2022/04/28 09:27:01;;;;;;;9.00;4.65;;;15.50;79.40;;;;;;5018322;28;20079;-61
2022/04/28 09:29:36;;;;;;;7.82;4.47;;;15.60;75.00;;;;;;5028717;28;20032;-61
2022/04/28 09:32:08;;;;;;;6.60;3.88;;;15.70;75.40;;;;;;5004890;28;20399;-61
2022/04/28 09:34:34;;;;;;;10.80;4.78;;;15.70;77.70;;;;;;5006395;28;20120;-61
2022/04/28 09:37:01;;;;;;;8.40;4.93;;;15.60;73.50;;;;;;5012447;28;20105;-62
2022/04/28 09:42:33;;;;;;;9.50;4.43;;;15.90;74.70;;;;;;5008954;28;20125;-61
2022/04/28 09:45:00;;;;;;;6.05;3.75;;;16.00;73.20;;;;;;4975534;28;20080;-61
2022/04/28 09:47:28;;;;;;;8.60;4.80;;;16.30;76.40;;;;;;5005044;28;20030;-61
2022/04/28 09:49:57;;;;;;;8.43;4.03;;;16.60;67.90;;;;;;5011401;28;20029;-61
2022/04/28 09:52:26;;;;;;;6.20;3.90;;;16.60;69.00;;;;;;5007789;28;20029;-61
2022/04/28 09:54:59;;;;;;;8.00;3.97;;;16.70;67.20;;;;;;4992840;28;20398;-61
2022/04/28 09:57:26;;;;;;;7.30;4.68;;;17.00;69.80;;;;;;4992399;28;20113;-61
2022/04/28 09:59:56;;;;;;;6.63;4.00;;;17.20;64.90;;;;;;4992904;28;20495;-61
2022/04/28 10:02:27;;;;;;;7.00;4.35;;;17.30;66.60;;;;;;4999843;28;20022;-61
2022/04/28 10:04:54;;;;;;;9.15;4.03;;;17.30;66.70;;;;;;4995152;28;20125;-61
2022/04/28 10:07:21;;;;;;;7.60;4.45;;;17.00;62.90;;;;;;5008167;28;20109;-61
2022/04/28 10:09:50;;;;;;;6.88;4.30;;;17.10;64.20;;;;;;4992664;28;20460;-61
2022/04/28 10:12:19;;;;;;;7.18;4.20;;;17.00;61.30;;;;;;5008165;28;20033;-61
2022/04/28 10:14:47;;;;;;;8.00;4.60;;;16.90;61.70;;;;;;4973006;28;20050;-61
2022/04/28 10:17:21;;;;;;;6.20;3.88;;;17.00;60.60;;;;;;4969770;28;20039;-61
2022/04/28 10:20:33;;;;;;;6.72;4.18;;;17.20;62.00;;;;;;4969207;28;20034;-61
2022/04/28 10:23:03;;;;;;;5.93;3.95;;;17.60;61.90;;;;;;4952048;28;20047;-61
2022/04/28 10:34:16;;;;;;;5.38;3.35;;;18.00;58.00;;;;;;4964923;28;20046;-61
2022/04/28 10:37:03;;;;;;;6.57;4.10;;;18.10;56.40;;;;;;4969823;28;20027;-61
2022/04/28 10:39:55;;;;;;;5.57;4.10;;;18.00;55.60;;;;;;4972426;28;20067;-61
2022/04/28 10:42:42;;;;;;;7.18;4.32;;;18.10;57.10;;;;;;4957595;28;20043;-61
2022/04/28 10:45:25;;;;;;;8.20;3.97;;;18.10;56.50;;;;;;4969349;28;20043;-61
2022/04/28 10:48:45;;;;;;;7.28;3.95;;;18.50;57.60;;;;;;4970694;28;20038;-61
2022/04/28 10:51:14;;;;;;;6.82;4.05;;;18.90;54.70;;;;;;4967959;28;20137;-61
2022/04/28 10:54:01;;;;;;;8.15;4.18;;;18.60;54.60;;;;;;4972353;28;20046;-61
2022/04/28 10:56:42;;;;;;;7.13;3.83;;;18.20;53.80;;;;;;4968426;28;20278;-60
2022/04/28 10:59:32;;;;;;;8.75;4.80;;;18.10;55.80;;;;;;4970381;28;20034;-61
2022/04/28 11:02:18;;;;;;;7.73;5.10;;;17.80;54.80;;;;;;4970938;28;20057;-61
2022/04/28 11:04:54;;;;;;;8.05;4.88;;;18.10;58.70;;;;;;4970272;28;20042;-61
2022/04/28 11:07:24;;;;;;;6.72;4.35;;;18.40;56.60;;;;;;4967903;28;20033;-61
2022/04/28 11:09:58;;;;;;;8.43;4.53;;;18.70;57.10;;;;;;4972846;28;20067;-61
2022/04/28 11:12:25;;;;;;;10.07;4.88;;;18.90;60.20;;;;;;4970576;28;20114;-61
2022/04/28 11:15:02;;;;;;;7.38;4.53;;;19.20;60.20;;;;;;4973230;28;20058;-61
2022/04/28 11:17:30;;;;;;;8.43;5.00;;;19.40;60.60;;;;;;5002138;28;20626;-61
2022/04/28 11:19:59;;;;;;;7.78;4.45;;;19.20;55.90;;;;;;5007461;28;20177;-61
2022/04/28 11:22:27;;;;;;;7.25;5.13;;;19.10;57.10;;;;;;5010182;28;20030;-61
2022/04/28 11:24:54;;;;;;;8.32;4.63;;;19.40;60.80;;;;;;5009532;28;20553;-61
2022/04/28 11:27:21;;;;;;;8.23;5.50;;;19.90;59.30;;;;;;5003081;28;20049;-61
2022/04/28 11:29:50;;;;;;;8.90;5.07;;;19.60;56.60;;;;;;4999174;28;20120;-61
2022/04/28 11:32:17;;;;;;;8.55;4.93;;;19.30;57.30;;;;;;5022788;28;20032;-60
2022/04/28 11:34:44;;;;;;;6.75;4.70;;;19.40;59.30;;;;;;5012410;28;20724;-60
2022/04/28 11:37:22;;;;;;;7.30;4.60;;;19.60;65.00;;;;;;5006249;28;20029;-61
2022/04/28 11:39:50;;;;;;;8.20;4.82;;;20.10;65.20;;;;;;5000197;28;20030;-61
2022/04/28 11:42:17;;;;;;;6.82;4.55;;;20.20;56.50;;;;;;5008068;28;20030;-61
2022/04/28 11:44:47;;;;;;;9.13;5.85;;;19.70;56.90;;;;;;5009512;28;20155;-65
2022/04/28 11:47:13;;;;;;;10.85;5.78;;;18.70;57.70;;;;;;5001419;28;20089;-61
2022/04/28 11:49:40;;;;;;;9.57;5.47;;;18.40;59.40;;;;;;5010506;28;20502;-62
2022/04/28 11:52:31;;;;;;;9.38;5.20;;;18.40;59.30;;;;;;5008186;28;20120;-61
2022/04/28 11:54:59;;;;;;;8.75;5.82;;;18.40;60.10;;;;;;4992576;28;20057;-61
2022/04/28 11:57:25;;;;;;;9.15;5.63;;;18.30;58.40;;;;;;4991385;28;20034;-61
2022/04/28 11:59:51;;;;;;;9.25;5.68;;;18.70;60.30;;;;;;5006764;28;20079;-62
2022/04/28 12:02:30;;;;;;;8.98;5.65;;;18.60;58.50;;;;;;4991575;28;20433;-61
2022/04/28 12:04:57;;;;;;;7.95;5.57;;;18.60;56.10;;;;;;4990724;28;20038;-61
2022/04/28 12:07:28;;;;;;;10.10;5.35;;;18.70;59.50;;;;;;4997713;28;20116;-61
2022/04/28 12:15:25;;;;;;;7.50;5.25;;;19.50;57.10;;;;;;5007172;28;20084;-61
2022/04/28 12:20:55;;;;;;;8.20;5.30;;;19.20;56.70;;;;;;5006408;28;20107;-61
2022/04/28 12:23:48;;;;;;;9.48;6.20;;;19.10;58.00;;;;;;5014280;28;20037;-61
2022/04/28 12:26:14;;;;;;;9.20;5.63;;;18.90;54.90;;;;;;4997572;28;20061;-62
2022/04/28 12:28:43;;;;;;;7.80;5.07;;;18.80;57.90;;;;;;4999329;28;20463;-61
2022/04/28 12:31:25;;;;;;;9.13;4.85;;;19.00;56.30;;;;;;4988063;28;20113;-61
2022/04/28 12:33:51;;;;;;;7.22;4.63;;;19.30;58.00;;;;;;4988372;28;20518;-61
2022/04/28 12:36:17;;;;;;;9.02;4.70;;;19.50;58.20;;;;;;4987390;28;20022;-61
2022/04/28 12:38:53;;;;;;;12.05;5.80;;;19.60;56.10;;;;;;5006656;28;20060;-62
2022/04/28 12:41:27;;;;;;;7.63;5.00;;;19.50;56.30;;;;;;4998287;28;20058;-62
2022/04/28 12:43:59;;;;;;;7.97;5.18;;;19.40;55.50;;;;;;4987766;28;20107;-62
2022/04/28 12:46:39;;;;;;;8.63;5.32;;;19.30;58.30;;;;;;4989007;28;20052;-63
2022/04/28 12:49:10;;;;;;;9.30;5.47;;;19.00;57.30;;;;;;4988076;28;20096;-64
2022/04/28 12:51:44;;;;;;;11.38;5.05;;;19.10;53.60;;;;;;4988701;28;20757;-63
2022/04/28 12:54:18;;;;;;;8.43;5.40;;;19.30;55.20;;;;;;4988753;28;20077;-62
2022/04/28 12:56:46;;;;;;;8.98;4.88;;;19.90;63.50;;;;;;4988705;28;20113;-62
2022/04/28 12:59:14;;;;;;;8.38;5.40;;;20.30;57.40;;;;;;4987812;28;20022;-62
2022/04/28 13:01:42;;;;;;;8.38;4.85;;;20.30;54.60;;;;;;4971385;28;20093;-62
2022/04/28 13:04:19;;;;;;;9.77;5.70;;;20.00;57.00;;;;;;4998094;28;20041;-62
2022/04/28 13:06:46;;;;;;;6.82;4.93;;;19.70;54.00;;;;;;5007112;28;20029;-62
2022/04/28 13:09:16;;;;;;;6.50;4.53;;;19.90;57.40;;;;;;4986437;28;20541;-62
2022/04/28 13:11:43;;;;;;;13.40;6.07;;;19.90;54.90;;;;;;4999070;28;20058;-62
2022/04/28 13:14:10;;;;;;;11.07;5.53;;;20.10;56.40;;;;;;5003221;28;20517;-63
2022/04/28 13:16:38;;;;;;;16.60;7.18;;;19.60;54.20;;;;;;4996775;28;20046;-61
2022/04/28 13:19:08;;;;;;;8.75;5.70;;;19.70;57.00;;;;;;4993365;28;20109;-62
2022/04/28 13:21:35;;;;;;;8.88;4.88;;;19.70;57.10;;;;;;5012573;28;20278;-62
2022/04/28 13:24:01;;;;;;;11.75;5.72;;;20.00;57.90;;;;;;5009239;28;20100;-61